createdAt,value
2024-02-02T00:00:39.064Z,51.03
2024-02-02T00:03:06.742Z,43.60
2024-02-02T00:05:34.436Z,39.80
2024-02-02T00:08:01.425Z,42.40
2024-02-02T00:10:28.571Z,38.38
2024-02-02T00:12:56.919Z,37.10
2024-02-02T00:15:24.388Z,39.28
2024-02-02T00:17:51.930Z,37.78
2024-02-02T00:20:19.234Z,36.35
2024-02-02T00:22:46.233Z,44.45
2024-02-02T00:25:13.219Z,41.33
2024-02-02T00:27:40.280Z,43.65
2024-02-02T00:30:07.838Z,38.95
2024-02-02T00:32:34.982Z,37.30
2024-02-02T00:35:02.017Z,51.45
2024-02-02T00:37:29.628Z,49.85
2024-02-02T00:39:57.491Z,47.55
2024-02-02T00:42:24.679Z,40.03
2024-02-02T00:44:51.962Z,47.22
2024-02-02T00:47:19.051Z,50.30
2024-02-02T00:49:46.141Z,44.20
2024-02-02T00:52:13.979Z,45.42
2024-02-02T00:54:40.908Z,38.10
2024-02-02T00:57:07.925Z,49.30
2024-02-02T00:59:34.970Z,40.03
2024-02-02T01:02:01.819Z,39.55
2024-02-02T01:04:29.146Z,42.13
2024-02-02T01:06:57.686Z,46.55
2024-02-02T01:09:25.496Z,40.40
2024-02-02T01:11:55.427Z,48.67
2024-02-02T01:14:22.810Z,35.55
2024-02-02T01:16:49.960Z,34.75
2024-02-02T01:19:18.290Z,43.40
2024-02-02T01:21:46.386Z,45.38
2024-02-02T01:24:13.528Z,34.78
2024-02-02T01:26:43.380Z,42.78
2024-02-02T01:29:10.832Z,36.55
2024-02-02T01:31:37.946Z,44.67
2024-02-02T01:34:05.293Z,42.13
2024-02-02T01:36:32.532Z,37.67
2024-02-02T01:38:59.647Z,49.17
2024-02-02T01:41:26.625Z,48.95
2024-02-02T01:43:54.437Z,43.10
2024-02-02T01:46:21.648Z,39.50
2024-02-02T01:48:49.693Z,43.13
2024-02-02T01:51:17.039Z,43.80
2024-02-02T01:53:44.195Z,43.45
2024-02-02T01:56:11.608Z,53.05
2024-02-02T01:58:39.095Z,40.28
2024-02-02T02:01:06.575Z,52.85
2024-02-02T02:03:33.768Z,39.15
2024-02-02T02:06:02.017Z,38.97
2024-02-02T02:08:29.120Z,54.53
2024-02-02T02:10:56.496Z,37.33
2024-02-02T02:13:25.523Z,43.97
2024-02-02T02:15:52.498Z,39.50
2024-02-02T02:18:20.254Z,44.40
2024-02-02T02:20:53.355Z,32.83
2024-02-02T02:23:20.275Z,36.75
2024-02-02T02:25:47.423Z,44.22
2024-02-02T02:28:15.010Z,44.83
2024-02-02T02:30:45.784Z,50.47
2024-02-02T02:33:15.323Z,43.75
2024-02-02T02:35:42.655Z,47.50
2024-02-02T02:38:09.923Z,45.17
2024-02-02T02:40:36.826Z,38.83
2024-02-02T02:43:04.791Z,38.65
2024-02-02T02:45:32.603Z,57.60
2024-02-02T02:47:59.626Z,46.35
2024-02-02T02:50:26.856Z,43.88
2024-02-02T02:52:53.818Z,43.85
2024-02-02T02:55:21.490Z,39.08
2024-02-02T02:57:48.536Z,42.30
2024-02-02T03:00:15.869Z,39.05
2024-02-02T03:02:42.856Z,46.97
2024-02-02T03:05:10.126Z,34.55
2024-02-02T03:07:37.088Z,45.70
2024-02-02T03:10:04.785Z,38.47
2024-02-02T03:12:31.833Z,46.40
2024-02-02T03:14:59.383Z,44.95
2024-02-02T03:17:26.996Z,51.42
2024-02-02T03:19:54.523Z,43.88
2024-02-02T03:22:21.774Z,41.65
2024-02-02T03:24:49.091Z,41.78
2024-02-02T03:27:16.147Z,49.53
2024-02-02T03:29:43.169Z,44.22
2024-02-02T03:32:10.147Z,47.50
2024-02-02T03:34:37.269Z,46.03
2024-02-02T03:37:04.485Z,45.42
2024-02-02T03:39:32.455Z,40.63
2024-02-02T03:41:59.552Z,44.95
2024-02-02T03:44:26.559Z,44.17
2024-02-02T03:46:53.473Z,53.65
2024-02-02T03:49:20.944Z,42.75
2024-02-02T03:51:48.254Z,45.75
2024-02-02T03:54:15.518Z,42.20
2024-02-02T03:56:44.413Z,46.03
2024-02-02T03:59:11.448Z,40.45
2024-02-02T04:01:38.415Z,38.15
2024-02-02T04:04:06.183Z,49.85
2024-02-02T04:06:33.878Z,44.80
2024-02-02T04:09:01.409Z,44.35
2024-02-02T04:11:29.280Z,42.13
2024-02-02T04:13:56.242Z,43.03
2024-02-02T04:16:23.703Z,37.45
2024-02-02T04:18:51.008Z,32.72
2024-02-02T04:21:18.091Z,33.90
2024-02-02T04:23:45.100Z,34.35
2024-02-02T04:26:12.095Z,33.50
2024-02-02T04:28:39.381Z,38.33
2024-02-02T04:31:06.830Z,41.03
2024-02-02T04:33:34.147Z,38.90
2024-02-02T04:36:01.408Z,36.53
2024-02-02T04:38:28.518Z,40.75
2024-02-02T04:40:55.906Z,33.90
2024-02-02T04:43:22.877Z,36.90
2024-02-02T04:45:49.910Z,32.00
2024-02-02T04:48:17.422Z,42.92
2024-02-02T04:50:44.696Z,33.15
2024-02-02T04:53:11.997Z,40.60
2024-02-02T04:55:39.106Z,32.75
2024-02-02T04:58:06.242Z,37.72
2024-02-02T05:00:33.386Z,39.05
2024-02-02T05:03:00.481Z,40.63
2024-02-02T05:05:27.375Z,35.72
2024-02-02T05:07:54.434Z,34.08
2024-02-02T05:10:21.400Z,42.38
2024-02-02T05:12:48.428Z,36.22
2024-02-02T05:15:15.442Z,30.20
2024-02-02T05:17:46.604Z,37.28
2024-02-02T05:20:14.175Z,48.38
2024-02-02T05:22:42.209Z,39.53
2024-02-02T05:25:09.901Z,45.38
2024-02-02T05:27:37.498Z,35.17
2024-02-02T05:30:06.667Z,39.40
2024-02-02T05:32:33.954Z,37.75
2024-02-02T05:35:01.208Z,36.08
2024-02-02T05:37:28.286Z,42.85
2024-02-02T05:39:55.818Z,34.70
2024-02-02T05:42:23.803Z,44.60
2024-02-02T05:44:51.020Z,41.88
2024-02-02T05:47:18.244Z,40.45
2024-02-02T05:49:45.576Z,47.47
2024-02-02T05:52:12.660Z,42.83
2024-02-02T05:54:39.991Z,38.30
2024-02-02T05:57:07.469Z,47.55
2024-02-02T05:59:34.629Z,55.92
2024-02-02T06:02:02.078Z,49.03
2024-02-02T06:04:29.264Z,46.15
2024-02-02T06:06:56.843Z,50.50
2024-02-02T06:09:25.795Z,42.35
2024-02-02T06:11:53.547Z,46.28
2024-02-02T06:14:22.016Z,49.03
2024-02-02T06:16:49.720Z,41.08
2024-02-02T06:19:16.863Z,38.72
2024-02-02T06:21:44.093Z,47.15
2024-02-02T06:24:11.159Z,41.17
2024-02-02T06:26:39.468Z,48.47
2024-02-02T06:29:06.916Z,40.55
2024-02-02T06:31:34.392Z,58.80
2024-02-02T06:34:02.563Z,42.28
2024-02-02T06:36:30.434Z,45.60
2024-02-02T06:38:58.316Z,46.35
2024-02-02T06:41:25.932Z,45.75
2024-02-02T06:43:52.909Z,48.20
2024-02-02T06:46:20.683Z,38.00
2024-02-02T06:48:50.103Z,53.17
2024-02-02T06:51:17.597Z,44.47
2024-02-02T06:53:46.013Z,52.08
2024-02-02T06:56:37.740Z,50.40
2024-02-02T06:59:08.629Z,49.10
2024-02-02T07:01:36.774Z,42.88
2024-02-02T07:04:07.612Z,48.83
2024-02-02T07:06:36.629Z,36.05
2024-02-02T07:09:32.365Z,39.08
2024-02-02T07:14:45.570Z,37.33
2024-02-02T07:17:39.737Z,41.08
2024-02-02T07:20:11.224Z,39.65
2024-02-02T07:22:43.638Z,45.72
2024-02-02T07:25:19.401Z,47.17
2024-02-02T07:27:57.409Z,43.65
2024-02-02T07:30:36.501Z,34.28
2024-02-02T07:33:05.834Z,35.78
2024-02-02T07:35:35.466Z,41.15
2024-02-02T07:38:06.136Z,34.70
2024-02-02T07:40:55.102Z,34.85
2024-02-02T07:43:22.092Z,37.47
2024-02-02T07:45:49.345Z,37.20
2024-02-02T07:48:16.524Z,33.35
2024-02-02T07:50:43.471Z,29.27
2024-02-02T07:53:10.906Z,40.40
2024-02-02T07:55:38.018Z,35.05
2024-02-02T07:58:06.139Z,32.45
2024-02-02T08:00:34.423Z,42.28
2024-02-02T08:03:01.499Z,35.80
2024-02-02T08:05:31.490Z,32.95
2024-02-02T08:07:58.390Z,44.38
2024-02-02T08:10:25.544Z,34.85
2024-02-02T08:12:52.779Z,37.97
2024-02-02T08:15:19.949Z,43.20
2024-02-02T08:17:47.176Z,31.80
2024-02-02T08:20:15.958Z,37.25
2024-02-02T08:22:46.186Z,31.38
2024-02-02T08:25:13.893Z,34.92
2024-02-02T08:27:41.030Z,32.92
2024-02-02T08:30:13.406Z,31.70
2024-02-02T08:32:41.405Z,32.08
2024-02-02T08:35:09.574Z,36.95
2024-02-02T08:37:37.265Z,42.47
2024-02-02T08:40:06.892Z,34.38
2024-02-02T08:42:34.072Z,32.65
2024-02-02T08:47:35.666Z,31.25
2024-02-02T08:50:05.541Z,38.55
2024-02-02T08:52:33.400Z,31.98
2024-02-02T08:55:21.794Z,43.20
2024-02-02T08:58:16.711Z,36.83
2024-02-02T09:00:45.083Z,46.83
2024-02-02T09:03:26.490Z,33.95
2024-02-02T09:06:14.884Z,29.67
2024-02-02T09:08:43.451Z,32.90
2024-02-02T09:11:13.901Z,37.42
2024-02-02T09:13:42.151Z,35.42
2024-02-02T09:16:11.216Z,33.83
2024-02-02T09:18:42.658Z,28.30
2024-02-02T09:21:14.390Z,35.78
2024-02-02T09:23:50.564Z,30.58
2024-02-02T09:26:32.267Z,32.45
2024-02-02T09:29:02.835Z,35.53
2024-02-02T09:31:37.531Z,30.65
2024-02-02T09:34:10.170Z,33.90
2024-02-02T09:36:41.158Z,33.65
2024-02-02T09:39:19.501Z,34.97
2024-02-02T09:42:28.977Z,37.25
2024-02-02T09:45:04.049Z,33.10
2024-02-02T09:50:33.562Z,27.60
2024-02-02T09:53:28.683Z,32.10
2024-02-02T09:56:35.384Z,24.55
2024-02-02T09:59:26.505Z,34.63
2024-02-02T10:02:09.659Z,28.17
2024-02-02T10:04:56.201Z,34.13
2024-02-02T10:07:48.189Z,29.23
2024-02-02T10:10:41.554Z,34.53
2024-02-02T10:13:40.026Z,34.90
2024-02-02T10:16:26.481Z,34.50
2024-02-02T10:19:08.961Z,38.95
2024-02-02T10:22:00.691Z,32.25
2024-02-02T10:24:41.820Z,34.15
2024-02-02T10:27:44.184Z,35.53
2024-02-02T10:30:28.577Z,37.97
2024-02-02T10:33:36.060Z,38.00
2024-02-02T10:36:09.850Z,38.22
2024-02-02T10:39:01.242Z,35.95
2024-02-02T10:42:10.351Z,30.83
2024-02-02T10:45:16.285Z,31.48
2024-02-02T10:47:53.978Z,28.42
2024-02-02T10:50:22.797Z,41.03
2024-02-02T10:52:58.753Z,36.95
2024-02-02T10:55:57.657Z,33.70
2024-02-02T10:58:54.351Z,32.33
2024-02-02T11:01:52.602Z,35.78
2024-02-02T11:04:39.637Z,39.50
2024-02-02T11:07:22.650Z,35.95
2024-02-02T11:10:01.961Z,33.67
2024-02-02T11:13:00.827Z,31.10
2024-02-02T11:16:05.539Z,34.17
2024-02-02T11:18:46.224Z,29.17
2024-02-02T11:21:23.095Z,35.15
2024-02-02T11:24:15.005Z,48.25
2024-02-02T11:27:07.108Z,36.53
2024-02-02T11:29:53.431Z,40.20
2024-02-02T11:32:40.767Z,36.78
2024-02-02T11:35:17.336Z,46.42
2024-02-02T11:38:13.120Z,35.72
2024-02-02T11:40:43.346Z,37.58
2024-02-02T11:43:11.524Z,44.28
2024-02-02T11:45:44.642Z,33.60
2024-02-02T11:48:21.771Z,30.63
2024-02-02T11:50:50.455Z,32.55
2024-02-02T11:53:34.437Z,35.55
2024-02-02T11:56:08.911Z,38.50
2024-02-02T11:58:40.005Z,38.67
2024-02-02T12:01:24.682Z,37.78
2024-02-02T12:04:01.378Z,41.13
2024-02-02T12:06:34.199Z,40.50
2024-02-02T12:09:18.680Z,33.47
2024-02-02T12:11:49.701Z,34.07
2024-02-02T12:14:27.342Z,39.13
2024-02-02T12:16:54.991Z,36.97
2024-02-02T12:19:23.395Z,40.00
2024-02-02T12:21:50.692Z,33.22
2024-02-02T12:24:18.599Z,40.28
2024-02-02T12:26:49.525Z,36.58
2024-02-02T12:29:17.273Z,40.55
2024-02-02T12:31:44.441Z,36.13
2024-02-02T12:34:13.043Z,40.05
2024-02-02T12:36:40.385Z,30.08
2024-02-02T12:39:08.836Z,36.58
2024-02-02T12:41:37.003Z,31.92
2024-02-02T12:44:07.441Z,30.02
2024-02-02T12:46:48.974Z,36.72
2024-02-02T12:49:16.348Z,40.47
2024-02-02T12:51:45.383Z,31.15
2024-02-02T12:54:13.059Z,37.13
2024-02-02T12:56:41.107Z,37.88
2024-02-02T12:59:13.734Z,37.95
2024-02-02T13:01:43.143Z,34.35
2024-02-02T13:04:11.315Z,37.85
2024-02-02T13:06:38.443Z,38.28
2024-02-02T13:09:20.167Z,37.58
2024-02-02T13:11:48.291Z,34.97
2024-02-02T13:14:30.295Z,33.40
2024-02-02T13:17:10.537Z,35.13
2024-02-02T13:19:50.411Z,37.03
2024-02-02T13:22:27.890Z,42.83
2024-02-02T13:24:58.481Z,40.88
2024-02-02T13:27:31.988Z,34.78
2024-02-02T13:30:04.205Z,36.67
2024-02-02T13:32:39.644Z,37.45
2024-02-02T13:35:10.485Z,31.88
2024-02-02T13:37:44.484Z,33.97
2024-02-02T13:40:14.498Z,27.52
2024-02-02T13:42:42.816Z,36.20
2024-02-02T13:45:17.513Z,40.88
2024-02-02T13:47:54.535Z,32.67
2024-02-02T13:50:31.215Z,43.67
2024-02-02T13:53:01.980Z,39.22
2024-02-02T13:55:34.151Z,38.33
2024-02-02T13:58:02.358Z,39.90
2024-02-02T14:00:33.615Z,36.00
2024-02-02T14:03:12.046Z,35.35
2024-02-02T14:05:42.982Z,34.25
2024-02-02T14:08:10.985Z,40.28
2024-02-02T14:10:49.521Z,41.15
2024-02-02T14:13:20.823Z,35.58
2024-02-02T14:15:49.983Z,38.92
2024-02-02T14:18:21.602Z,41.55
2024-02-02T14:20:49.449Z,45.53
2024-02-02T14:23:17.249Z,37.35
2024-02-02T14:25:44.674Z,48.20
2024-02-02T14:28:17.199Z,45.88
2024-02-02T14:30:45.419Z,44.40
2024-02-02T14:33:25.561Z,48.67
2024-02-02T14:35:58.240Z,55.80
2024-02-02T14:38:26.460Z,47.00
2024-02-02T14:40:54.577Z,55.70
2024-02-02T14:43:22.527Z,51.50
2024-02-02T14:45:49.787Z,52.70
2024-02-02T14:48:19.250Z,55.63
2024-02-02T14:50:46.952Z,54.58
2024-02-02T14:53:14.367Z,50.58
2024-02-02T14:55:41.868Z,56.58
2024-02-02T14:58:10.043Z,52.72
2024-02-02T15:00:45.347Z,51.13
2024-02-02T15:03:14.562Z,52.13
2024-02-02T15:05:41.797Z,58.80
2024-02-02T15:08:10.149Z,66.68
2024-02-02T15:10:38.750Z,55.67
2024-02-02T15:13:06.236Z,57.38
2024-02-02T15:15:34.079Z,56.35
2024-02-02T15:18:02.722Z,58.75
2024-02-02T15:20:30.041Z,59.15
2024-02-02T15:22:57.714Z,52.72
2024-02-02T15:25:25.124Z,64.82
2024-02-02T15:27:52.904Z,56.28
2024-02-02T15:30:20.476Z,59.22
2024-02-02T15:32:47.929Z,55.22
2024-02-02T15:35:15.387Z,57.40
2024-02-02T15:37:43.562Z,61.45
2024-02-02T15:40:10.829Z,61.42
2024-02-02T15:42:38.412Z,63.33
2024-02-02T15:45:06.933Z,55.05
2024-02-02T15:47:35.407Z,56.92
2024-02-02T15:50:02.869Z,62.30
2024-02-02T15:52:30.436Z,64.20
2024-02-02T15:55:04.488Z,56.13
2024-02-02T15:57:32.468Z,46.85
2024-02-02T16:00:00.350Z,59.65
2024-02-02T16:02:28.249Z,64.70
2024-02-02T16:04:58.733Z,55.90
2024-02-02T16:07:26.241Z,52.90
2024-02-02T16:09:53.884Z,57.85
2024-02-02T16:12:22.925Z,60.03
2024-02-02T16:14:50.171Z,54.38
2024-02-02T16:17:18.710Z,50.60
2024-02-02T16:19:47.068Z,47.85
2024-02-02T16:22:15.475Z,44.10
2024-02-02T16:24:43.207Z,53.42
2024-02-02T16:27:10.650Z,43.22
2024-02-02T16:29:38.397Z,47.08
2024-02-02T16:32:06.418Z,46.17
2024-02-02T16:34:35.310Z,47.42
2024-02-02T16:37:02.835Z,53.20
2024-02-02T16:39:34.465Z,51.83
2024-02-02T16:42:02.247Z,47.20
2024-02-02T16:44:30.405Z,53.60
2024-02-02T16:46:58.150Z,42.85
2024-02-02T16:49:26.171Z,50.15
2024-02-02T16:51:53.245Z,46.20
2024-02-02T16:54:21.272Z,54.38
2024-02-02T16:56:48.967Z,43.42
2024-02-02T16:59:16.691Z,53.90
2024-02-02T17:01:43.988Z,53.13
2024-02-02T17:04:11.282Z,47.13
2024-02-02T17:06:42.429Z,47.85
2024-02-02T17:09:10.572Z,45.88
2024-02-02T17:11:38.309Z,50.40
2024-02-02T17:14:05.541Z,46.40
2024-02-02T17:16:32.931Z,49.97
2024-02-02T17:19:00.492Z,45.20
2024-02-02T17:21:27.750Z,52.92
2024-02-02T17:23:55.428Z,43.30
2024-02-02T17:26:22.787Z,48.03
2024-02-02T17:28:55.174Z,48.38
2024-02-02T17:31:27.515Z,53.10
2024-02-02T17:33:55.221Z,46.53
2024-02-02T17:36:22.593Z,39.70
2024-02-02T17:38:49.962Z,47.97
2024-02-02T17:41:18.728Z,45.38
2024-02-02T17:43:47.621Z,39.50
2024-02-02T17:46:16.469Z,46.20
2024-02-02T17:48:43.809Z,41.45
2024-02-02T17:51:11.622Z,43.30
2024-02-02T17:53:42.414Z,40.10
2024-02-02T17:56:10.097Z,40.15
2024-02-02T17:58:37.341Z,42.67
2024-02-02T18:01:08.315Z,42.05
2024-02-02T18:03:36.045Z,39.85
2024-02-02T18:06:05.598Z,47.30
2024-02-02T18:08:33.336Z,41.30
2024-02-02T18:11:01.123Z,41.60
2024-02-02T18:13:28.287Z,41.75
2024-02-02T18:15:55.492Z,46.72
2024-02-02T18:18:23.859Z,41.85
2024-02-02T18:20:51.186Z,44.85
2024-02-02T18:23:18.868Z,41.33
2024-02-02T18:25:45.905Z,43.05
2024-02-02T18:28:17.177Z,43.78
2024-02-02T18:30:45.138Z,43.53
2024-02-02T18:33:12.540Z,45.60
2024-02-02T18:35:39.530Z,41.38
2024-02-02T18:38:06.806Z,43.50
2024-02-02T18:40:35.593Z,43.47
2024-02-02T18:43:02.858Z,45.10
2024-02-02T18:45:30.036Z,47.03
2024-02-02T18:47:57.266Z,41.70
2024-02-02T18:50:24.387Z,42.05
2024-02-02T18:52:51.646Z,43.10
2024-02-02T18:55:18.915Z,44.85
2024-02-02T18:57:46.167Z,42.67
2024-02-02T19:00:15.767Z,42.90
2024-02-02T19:02:43.003Z,45.15
2024-02-02T19:05:10.364Z,45.47
2024-02-02T19:07:38.069Z,45.03
2024-02-02T19:10:06.188Z,49.03
2024-02-02T19:12:34.223Z,48.03
2024-02-02T19:15:06.239Z,48.40
2024-02-02T19:17:33.562Z,55.20
2024-02-02T19:20:01.269Z,47.38
2024-02-02T19:22:28.855Z,47.80
2024-02-02T19:24:59.543Z,49.00
2024-02-02T19:27:27.343Z,48.67
2024-02-02T19:29:55.194Z,56.08
2024-02-02T19:32:22.474Z,53.92
2024-02-02T19:34:49.965Z,50.03
2024-02-02T19:37:17.299Z,48.15
2024-02-02T19:39:45.397Z,52.13
2024-02-02T19:42:13.289Z,45.88
2024-02-02T19:44:41.165Z,50.33
2024-02-02T19:47:08.172Z,47.78
2024-02-02T19:49:35.792Z,50.15
2024-02-02T19:52:03.149Z,47.85
2024-02-02T19:54:32.392Z,55.25
2024-02-02T19:57:00.484Z,45.55
2024-02-02T19:59:27.637Z,50.92
2024-02-02T20:01:57.307Z,49.35
2024-02-02T20:04:26.563Z,51.85
2024-02-02T20:06:54.388Z,50.92
2024-02-02T20:09:23.894Z,48.20
2024-02-02T20:11:51.952Z,48.45
2024-02-02T20:14:20.045Z,49.95
2024-02-02T20:16:48.079Z,51.28
2024-02-02T20:19:16.447Z,52.35
2024-02-02T20:21:43.770Z,44.67
2024-02-02T20:24:11.464Z,46.35
2024-02-02T20:26:39.366Z,44.35
2024-02-02T20:29:06.857Z,45.10
2024-02-02T20:31:34.528Z,47.90
2024-02-02T20:34:02.862Z,49.33
2024-02-02T20:36:33.154Z,48.33
2024-02-02T20:39:00.821Z,47.33
2024-02-02T20:41:28.338Z,49.13
2024-02-02T20:43:57.127Z,48.90
2024-02-02T20:46:24.849Z,53.53
2024-02-02T20:48:52.580Z,46.58
2024-02-02T20:51:20.306Z,48.92
2024-02-02T20:53:47.651Z,45.53
2024-02-02T20:56:15.042Z,51.63
2024-02-02T20:58:42.851Z,46.55
2024-02-02T21:01:10.931Z,51.13
2024-02-02T21:03:38.775Z,49.22
2024-02-02T21:06:07.929Z,49.38
2024-02-02T21:08:35.906Z,46.83
2024-02-02T21:11:03.443Z,47.00
2024-02-02T21:13:31.165Z,45.97
2024-02-02T21:15:58.887Z,47.58
2024-02-02T21:18:28.592Z,48.80
2024-02-02T21:20:56.902Z,50.08
2024-02-02T21:23:25.062Z,49.22
2024-02-02T21:25:52.720Z,47.22
2024-02-02T21:28:21.121Z,52.58
2024-02-02T21:30:50.275Z,49.35
2024-02-02T21:33:25.626Z,53.40
2024-02-02T21:35:53.110Z,49.20
2024-02-02T21:38:20.396Z,49.80
2024-02-02T21:40:48.074Z,53.65
2024-02-02T21:43:15.263Z,54.25
2024-02-02T21:45:42.765Z,52.67
2024-02-02T21:48:11.871Z,50.85
2024-02-02T21:50:40.381Z,50.20
2024-02-02T21:53:12.445Z,49.95
2024-02-02T21:55:39.764Z,48.78
2024-02-02T21:58:09.545Z,48.47
2024-02-02T22:00:37.521Z,56.45
2024-02-02T22:03:04.972Z,52.92
2024-02-02T22:05:32.453Z,53.03
2024-02-02T22:08:00.902Z,50.03
2024-02-02T22:10:28.285Z,57.90
2024-02-02T22:12:55.519Z,57.90
2024-02-02T22:15:22.918Z,60.42
2024-02-02T22:17:52.213Z,60.58
2024-02-02T22:20:19.837Z,58.80
2024-02-02T22:22:47.500Z,60.85
2024-02-02T22:25:15.766Z,60.42
2024-02-02T22:27:45.851Z,57.10
2024-02-02T22:30:14.025Z,61.47
2024-02-02T22:32:41.643Z,62.15
2024-02-02T22:35:09.832Z,61.38
2024-02-02T22:37:39.143Z,55.05
2024-02-02T22:40:07.289Z,61.10
2024-02-02T22:42:35.025Z,58.63
2024-02-02T22:45:04.283Z,63.60
2024-02-02T22:47:31.849Z,61.67
2024-02-02T22:49:59.195Z,65.55
2024-02-02T22:52:27.197Z,63.60
2024-02-02T22:54:54.866Z,69.50
2024-02-02T22:57:22.464Z,67.35
2024-02-02T22:59:57.032Z,60.13
2024-02-02T23:02:30.273Z,67.95
2024-02-02T23:04:58.031Z,60.05
2024-02-02T23:07:25.703Z,63.38
2024-02-02T23:09:53.542Z,66.40
2024-02-02T23:12:21.086Z,63.22
2024-02-02T23:14:48.965Z,61.40
2024-02-02T23:17:16.348Z,71.45
2024-02-02T23:19:45.309Z,64.22
2024-02-02T23:22:12.739Z,62.38
2024-02-02T23:24:40.519Z,62.58
2024-02-02T23:27:08.550Z,68.20
2024-02-02T23:29:36.074Z,66.97
2024-02-02T23:32:04.941Z,64.47
2024-02-02T23:34:32.312Z,66.05
2024-02-02T23:36:59.648Z,66.03
2024-02-02T23:39:26.636Z,64.32
2024-02-02T23:41:54.279Z,69.43
2024-02-02T23:44:21.658Z,67.75
2024-02-02T23:46:48.678Z,67.90
2024-02-02T23:49:18.226Z,67.97
2024-02-02T23:51:46.248Z,63.65
2024-02-02T23:54:14.383Z,68.65
2024-02-02T23:56:42.044Z,61.88
2024-02-02T23:59:09.564Z,68.65
